Time;durP1;ratioP1;P1;durP2;ratioP2;P2;SDS_P1;SDS_P2;PMS_P1;PMS_P2;Temp;Humidity;BMP_temperature;BMP_pressure;BME280_temperature;BME280_humidity;BME280_pressure;Samples;Min_cycle;Max_cycle;Signal;HPM_P1;HPM_P2
2023/01/25 00:00:51;;;;;;;76.32;49.47;;;1.40;99.90;;;;;;5031512;28;20119;-56
2023/01/25 00:03:18;;;;;;;75.60;47.65;;;1.40;99.90;;;;;;5029408;28;20594;-56
2023/01/25 00:05:46;;;;;;;72.40;46.03;;;1.40;99.90;;;;;;5032953;28;20049;-57
2023/01/25 00:08:13;;;;;;;78.00;49.85;;;1.40;99.90;;;;;;5031238;28;20041;-57
2023/01/25 00:10:40;;;;;;;69.40;45.65;;;1.40;99.90;;;;;;5028939;28;20103;-53
2023/01/25 00:13:06;;;;;;;69.68;45.15;;;1.40;99.90;;;;;;5030219;28;20053;-47
2023/01/25 00:15:33;;;;;;;75.43;47.88;;;1.30;99.90;;;;;;5031040;28;20057;-57
2023/01/25 00:18:00;;;;;;;70.65;45.10;;;1.20;99.90;;;;;;5030231;28;20452;-56
2023/01/25 00:20:27;;;;;;;72.53;46.17;;;1.20;99.90;;;;;;5031449;28;20120;-52
2023/01/25 00:22:55;;;;;;;72.57;45.20;;;1.20;99.90;;;;;;5031041;28;20057;-56
2023/01/25 00:25:22;;;;;;;75.88;47.58;;;1.20;99.90;;;;;;5031878;28;20045;-55
2023/01/25 00:27:48;;;;;;;71.80;46.00;;;1.20;99.90;;;;;;5030363;28;20041;-56
2023/01/25 00:30:16;;;;;;;73.07;46.40;;;1.20;99.90;;;;;;5029568;28;20477;-54
2023/01/25 00:32:53;;;;;;;72.93;46.92;;;1.20;99.90;;;;;;5033028;28;20053;-57
2023/01/25 00:35:20;;;;;;;78.90;47.05;;;1.20;99.90;;;;;;5032062;28;20085;-56
2023/01/25 00:37:48;;;;;;;75.32;47.35;;;1.20;99.90;;;;;;5029491;28;20061;-55
2023/01/25 00:40:17;;;;;;;79.38;49.55;;;1.20;99.90;;;;;;5031600;28;20053;-53
2023/01/25 00:42:43;;;;;;;76.13;47.53;;;1.20;99.90;;;;;;5030828;28;20448;-56
2023/01/25 00:45:11;;;;;;;73.85;47.70;;;1.30;99.90;;;;;;5032368;28;20081;-56
2023/01/25 00:47:38;;;;;;;78.75;49.53;;;1.10;99.90;;;;;;5022306;28;20049;-57
2023/01/25 00:50:06;;;;;;;78.57;49.33;;;1.10;99.90;;;;;;5034849;28;20563;-53
2023/01/25 00:52:33;;;;;;;78.13;49.10;;;1.10;99.90;;;;;;5035439;28;20045;-56
2023/01/25 00:54:59;;;;;;;75.70;47.05;;;1.10;99.90;;;;;;5033585;28;20057;-55
2023/01/25 00:57:28;;;;;;;77.72;49.35;;;1.10;99.90;;;;;;5034295;28;20053;-57
2023/01/25 00:59:54;;;;;;;75.93;47.60;;;1.00;99.90;;;;;;5034030;28;20085;-55
2023/01/25 01:02:21;;;;;;;74.95;46.78;;;1.10;99.90;;;;;;5033415;28;20448;-55
2023/01/25 01:04:48;;;;;;;71.43;46.05;;;1.10;99.90;;;;;;5033257;28;20096;-51
2023/01/25 01:07:15;;;;;;;74.07;47.38;;;1.10;99.90;;;;;;5033980;28;20073;-56
2023/01/25 01:09:41;;;;;;;74.78;46.28;;;1.10;99.90;;;;;;5034033;28;20080;-55
2023/01/25 01:12:08;;;;;;;77.07;48.25;;;1.00;99.90;;;;;;5034316;28;20060;-56
2023/01/25 01:14:37;;;;;;;75.10;47.22;;;1.00;99.90;;;;;;5034072;28;20508;-57
2023/01/25 01:17:04;;;;;;;73.28;47.03;;;1.00;99.90;;;;;;5034225;28;20050;-56
2023/01/25 01:19:30;;;;;;;74.72;47.38;;;1.10;99.90;;;;;;5033837;28;20049;-56
2023/01/25 01:21:57;;;;;;;74.68;47.63;;;1.10;99.90;;;;;;5034955;28;20129;-50
2023/01/25 01:24:24;;;;;;;73.80;46.47;;;1.00;99.90;;;;;;5033444;28;20041;-55
2023/01/25 01:26:51;;;;;;;77.95;49.28;;;1.00;99.90;;;;;;5033211;28;20132;-57
2023/01/25 01:29:18;;;;;;;76.95;48.17;;;1.00;99.90;;;;;;5032207;28;20444;-57
2023/01/25 01:31:46;;;;;;;76.20;47.75;;;1.10;99.90;;;;;;5032592;28;20054;-56
2023/01/25 01:34:13;;;;;;;74.30;48.33;;;1.10;99.90;;;;;;5043218;28;20076;-49
2023/01/25 01:36:40;;;;;;;76.22;48.63;;;1.10;99.90;;;;;;5033796;28;20065;-55
2023/01/25 01:39:07;;;;;;;75.72;46.05;;;1.10;99.90;;;;;;5034240;28;20076;-57
2023/01/25 01:41:34;;;;;;;74.07;47.80;;;1.10;99.90;;;;;;5032269;28;20046;-53
2023/01/25 01:44:01;;;;;;;73.32;46.65;;;1.20;99.90;;;;;;5032476;28;20093;-56
2023/01/25 01:46:29;;;;;;;73.53;47.15;;;1.10;99.90;;;;;;5033734;28;20085;-52
2023/01/25 01:48:58;;;;;;;74.05;47.60;;;1.10;99.90;;;;;;5033393;28;20555;-56
2023/01/25 01:51:28;;;;;;;76.38;48.60;;;1.10;99.90;;;;;;5032794;28;20081;-56
2023/01/25 01:53:57;;;;;;;78.45;49.50;;;1.10;99.90;;;;;;5031616;28;20497;-56
2023/01/25 01:56:28;;;;;;;80.85;49.13;;;1.10;99.90;;;;;;5032425;28;20073;-45
2023/01/25 01:58:55;;;;;;;76.97;49.20;;;1.10;99.90;;;;;;5034291;28;20045;-56
2023/01/25 02:01:22;;;;;;;73.43;47.17;;;1.10;99.90;;;;;;5033620;28;20104;-55
2023/01/25 02:03:49;;;;;;;75.13;48.85;;;1.10;99.90;;;;;;5030410;28;20053;-56
2023/01/25 02:06:20;;;;;;;75.00;48.45;;;1.10;99.90;;;;;;5031224;28;20210;-56
2023/01/25 02:08:47;;;;;;;;;;;1.00;99.90;;;;;;5033104;28;20129;-54
2023/01/25 02:11:14;;;;;;;74.30;47.13;;;1.00;99.90;;;;;;5033056;28;19964;-57
2023/01/25 02:13:41;;;;;;;76.65;49.33;;;1.00;99.90;;;;;;5031936;28;20130;-55
2023/01/25 02:16:12;;;;;;;79.55;50.08;;;0.90;99.90;;;;;;5034096;28;20464;-54
2023/01/25 02:18:39;;;;;;;77.80;49.17;;;0.90;99.90;;;;;;5030407;28;20103;-55
2023/01/25 02:21:06;;;;;;;74.53;48.85;;;0.90;99.90;;;;;;5031922;28;20073;-56
2023/01/25 02:23:37;;;;;;;78.07;50.10;;;0.90;99.90;;;;;;5032164;28;20058;-57
2023/01/25 02:26:06;;;;;;;77.60;49.42;;;0.90;99.90;;;;;;5030379;28;20081;-56
2023/01/25 02:28:34;;;;;;;74.63;49.22;;;1.00;99.90;;;;;;5030584;28;20139;-55
2023/01/25 02:31:01;;;;;;;72.90;47.80;;;1.00;99.90;;;;;;5036906;28;20049;-56
2023/01/25 02:33:28;;;;;;;79.85;50.85;;;0.90;99.90;;;;;;5036724;28;20084;-57
2023/01/25 02:35:58;;;;;;;76.15;48.33;;;0.90;99.90;;;;;;5032331;28;20053;-56
2023/01/25 02:38:25;;;;;;;75.95;49.05;;;0.90;99.90;;;;;;5032497;28;20058;-57
2023/01/25 02:40:53;;;;;;;74.50;48.25;;;0.90;99.90;;;;;;5032590;28;20469;-56
2023/01/25 02:43:22;;;;;;;80.40;50.38;;;1.00;99.90;;;;;;5032089;28;20534;-50
2023/01/25 02:45:50;;;;;;;81.60;51.40;;;0.90;99.90;;;;;;5031683;28;20516;-56
2023/01/25 02:48:17;;;;;;;79.07;51.00;;;0.80;99.90;;;;;;5031296;28;20057;-57
2023/01/25 02:50:44;;;;;;;81.13;50.88;;;0.80;99.90;;;;;;5031854;28;20136;-55
2023/01/25 02:53:10;;;;;;;81.03;50.75;;;0.90;99.90;;;;;;5030514;28;20506;-57
2023/01/25 02:55:37;;;;;;;80.53;51.58;;;0.90;99.90;;;;;;5030900;28;20076;-55
2023/01/25 02:58:04;;;;;;;78.40;49.83;;;0.90;99.90;;;;;;5032867;28;20115;-54
2023/01/25 03:00:32;;;;;;;79.47;50.40;;;0.90;99.90;;;;;;5033110;28;20456;-36
2023/01/25 03:02:59;;;;;;;78.00;50.22;;;0.90;99.90;;;;;;5029533;28;20058;-54
2023/01/25 03:05:26;;;;;;;79.53;49.65;;;0.80;99.90;;;;;;5029562;28;20091;-56
2023/01/25 03:07:53;;;;;;;79.25;50.90;;;0.80;99.90;;;;;;5030429;28;20053;-57
2023/01/25 03:10:19;;;;;;;78.55;49.92;;;0.90;99.90;;;;;;5033049;28;20448;-54
2023/01/25 03:12:46;;;;;;;80.22;50.58;;;0.80;99.90;;;;;;5030557;28;20141;-54
2023/01/25 03:15:13;;;;;;;79.82;50.10;;;0.80;99.90;;;;;;5030713;28;20053;-57
2023/01/25 03:17:41;;;;;;;78.65;49.70;;;0.90;99.90;;;;;;5032441;28;20462;-56
2023/01/25 03:20:09;;;;;;;79.65;51.15;;;0.90;99.90;;;;;;5032147;28;20061;-54
2023/01/25 03:22:36;;;;;;;78.88;51.20;;;0.90;99.90;;;;;;5032491;28;20092;-56
2023/01/25 03:25:03;;;;;;;77.25;49.17;;;0.90;99.90;;;;;;5032140;28;20091;-55
2023/01/25 03:27:30;;;;;;;80.90;51.13;;;0.90;99.90;;;;;;5032979;28;20418;-55
2023/01/25 03:29:57;;;;;;;79.70;51.33;;;0.90;99.90;;;;;;5029508;28;20140;-56
2023/01/25 03:32:23;;;;;;;79.05;51.67;;;0.90;99.90;;;;;;5030072;28;20049;-55
2023/01/25 03:34:51;;;;;;;76.78;50.20;;;0.90;99.90;;;;;;5030742;28;20081;-57
2023/01/25 03:37:18;;;;;;;73.40;47.58;;;0.90;99.90;;;;;;5027823;28;20142;-56
2023/01/25 03:39:45;;;;;;;76.72;49.13;;;0.80;99.90;;;;;;5030421;28;20124;-50
2023/01/25 03:42:12;;;;;;;81.40;49.95;;;0.80;99.90;;;;;;5032650;28;20450;-56
2023/01/25 03:44:39;;;;;;;75.95;48.17;;;0.80;99.90;;;;;;5031776;28;20037;-57
2023/01/25 03:47:05;;;;;;;77.45;48.78;;;0.80;99.90;;;;;;5031259;28;20489;-54
2023/01/25 03:49:32;;;;;;;75.90;49.08;;;0.80;99.90;;;;;;5030852;28;20057;-55
2023/01/25 03:52:00;;;;;;;73.70;46.78;;;0.80;99.90;;;;;;5031538;28;20473;-56
2023/01/25 03:54:27;;;;;;;72.07;46.63;;;0.80;99.90;;;;;;5031042;28;20136;-50
2023/01/25 03:56:54;;;;;;;73.60;46.97;;;0.80;99.90;;;;;;5031098;28;20501;-55
2023/01/25 03:59:21;;;;;;;71.15;45.58;;;0.90;99.90;;;;;;5030626;28;20093;-54
2023/01/25 04:01:47;;;;;;;74.10;47.90;;;0.80;99.90;;;;;;5030403;28;20053;-56
2023/01/25 04:04:14;;;;;;;73.03;48.10;;;0.80;99.90;;;;;;5031599;28;20072;-56
2023/01/25 04:06:41;;;;;;;74.15;46.17;;;0.80;99.90;;;;;;5030939;28;20076;-50
2023/01/25 04:09:09;;;;;;;69.47;44.50;;;0.80;99.90;;;;;;5031209;28;20049;-56
2023/01/25 04:11:36;;;;;;;67.07;44.88;;;0.80;99.90;;;;;;5030648;28;20128;-56
2023/01/25 04:14:03;;;;;;;69.95;46.63;;;0.80;99.90;;;;;;5030219;28;20111;-56
2023/01/25 04:16:30;;;;;;;69.05;45.35;;;0.80;99.90;;;;;;5031361;28;20049;-57
2023/01/25 04:18:57;;;;;;;63.72;41.60;;;0.80;99.90;;;;;;5029372;28;20417;-55
2023/01/25 04:21:23;;;;;;;63.92;41.30;;;0.80;99.90;;;;;;5031039;28;20061;-55
2023/01/25 04:23:50;;;;;;;64.47;41.10;;;0.80;99.90;;;;;;5036655;28;20056;-51
2023/01/25 04:26:18;;;;;;;60.25;40.40;;;0.80;99.90;;;;;;5033031;28;20072;-55
2023/01/25 04:28:45;;;;;;;59.13;39.13;;;0.80;99.90;;;;;;5031064;28;20505;-54
2023/01/25 04:31:12;;;;;;;62.00;40.60;;;0.80;99.90;;;;;;5028452;28;20104;-56
2023/01/25 04:33:39;;;;;;;57.53;37.78;;;0.70;99.90;;;;;;5030719;28;20057;-56
2023/01/25 04:36:06;;;;;;;64.45;40.85;;;0.70;99.90;;;;;;5030070;28;20131;-56
2023/01/25 04:38:33;;;;;;;62.90;41.20;;;0.80;99.90;;;;;;5029027;28;20080;-56
2023/01/25 04:41:00;;;;;;;59.83;40.60;;;0.90;99.90;;;;;;5029540;28;20571;-55
2023/01/25 04:43:28;;;;;;;64.15;42.15;;;0.80;99.90;;;;;;5029820;28;20117;-55
2023/01/25 04:45:55;;;;;;;62.35;40.85;;;0.70;99.90;;;;;;5022766;28;20153;-56
2023/01/25 04:48:21;;;;;;;60.20;39.90;;;0.70;99.90;;;;;;5027560;28;20494;-50
2023/01/25 04:50:48;;;;;;;62.90;40.78;;;0.70;99.90;;;;;;5029791;28;20050;-54
2023/01/25 04:53:15;;;;;;;60.42;39.78;;;0.80;99.90;;;;;;5029798;28;20520;-53
2023/01/25 04:55:45;;;;;;;61.05;40.35;;;0.80;99.90;;;;;;5029644;28;20100;-53
2023/01/25 04:58:11;;;;;;;58.75;38.85;;;0.80;99.90;;;;;;5031216;28;20042;-52
2023/01/25 05:00:39;;;;;;;58.28;39.85;;;0.80;99.90;;;;;;5027354;28;20045;-54
2023/01/25 05:03:06;;;;;;;62.45;39.80;;;0.80;99.90;;;;;;5025921;28;20096;-54
2023/01/25 05:05:33;;;;;;;62.15;40.97;;;0.90;99.90;;;;;;5027705;28;20053;-54
2023/01/25 05:08:00;;;;;;;63.35;40.88;;;0.90;99.90;;;;;;5028873;28;20464;-53
2023/01/25 05:10:27;;;;;;;60.15;39.80;;;0.90;99.90;;;;;;5027253;28;20045;-50
2023/01/25 05:12:53;;;;;;;59.28;38.90;;;0.90;99.90;;;;;;5028856;28;20144;-55
2023/01/25 05:15:20;;;;;;;62.60;39.78;;;0.90;99.90;;;;;;5031172;28;20103;-55
2023/01/25 05:17:48;;;;;;;62.05;39.03;;;0.80;99.90;;;;;;5029727;28;20057;-55
2023/01/25 05:20:16;;;;;;;59.35;40.20;;;0.90;99.90;;;;;;5029796;28;20132;-53
2023/01/25 05:22:42;;;;;;;62.35;39.30;;;0.90;99.90;;;;;;5027581;28;20081;-51
2023/01/25 05:26:59;;;;;;;63.20;40.80;;;0.90;99.90;;;;;;5029928;28;20054;-54
2023/01/25 05:27:55;;;;;;;67.78;42.85;;;0.90;99.90;;;;;;5030766;28;20085;-55
2023/01/25 05:30:22;;;;;;;65.47;42.55;;;0.80;99.90;;;;;;5032454;28;20135;-54
2023/01/25 05:32:50;;;;;;;66.40;41.38;;;0.80;99.90;;;;;;5034159;28;20127;-51
2023/01/25 05:35:17;;;;;;;58.08;36.97;;;0.80;99.90;;;;;;5033930;28;20115;-53
2023/01/25 05:37:44;;;;;;;67.35;41.33;;;0.80;99.90;;;;;;5035685;28;20064;-49
2023/01/25 05:40:11;;;;;;;69.43;44.38;;;0.70;99.90;;;;;;5028960;28;20077;-51
2023/01/25 05:42:38;;;;;;;68.70;41.67;;;0.70;99.90;;;;;;5027314;28;20516;-46
2023/01/25 05:45:06;;;;;;;69.35;43.08;;;0.80;99.90;;;;;;5031259;28;20108;-47
2023/01/25 05:47:33;;;;;;;65.43;41.83;;;0.80;99.90;;;;;;5035073;28;20085;-52
2023/01/25 05:50:01;;;;;;;63.75;40.15;;;0.80;99.90;;;;;;5031999;28;20077;-50
2023/01/25 05:52:28;;;;;;;69.65;43.72;;;0.80;99.90;;;;;;5030159;28;20092;-51
2023/01/25 05:54:55;;;;;;;64.45;41.47;;;0.80;99.90;;;;;;5030714;28;20078;-51
2023/01/25 05:57:21;;;;;;;68.93;43.95;;;0.80;99.90;;;;;;5028646;28;20444;-53
2023/01/25 05:59:48;;;;;;;65.03;41.65;;;0.80;99.90;;;;;;5027313;28;20049;-51
2023/01/25 06:02:15;;;;;;;67.22;41.75;;;0.80;99.90;;;;;;5028581;28;20076;-52
2023/01/25 06:04:42;;;;;;;61.40;39.35;;;0.80;99.90;;;;;;5026601;28;20115;-52
2023/01/25 06:07:10;;;;;;;68.40;42.85;;;0.80;99.90;;;;;;5028853;28;20103;-48
2023/01/25 06:09:37;;;;;;;67.18;43.75;;;0.80;99.90;;;;;;5021221;28;20100;-51
2023/01/25 06:12:05;;;;;;;69.25;43.30;;;0.80;99.90;;;;;;5030626;28;20123;-53
2023/01/25 06:14:32;;;;;;;68.15;44.10;;;0.80;99.90;;;;;;5031424;28;20057;-51
2023/01/25 06:16:59;;;;;;;69.72;43.10;;;0.80;99.90;;;;;;5030691;28;20053;-53
2023/01/25 06:19:25;;;;;;;65.38;40.75;;;0.90;99.90;;;;;;5032934;28;20115;-52
2023/01/25 06:21:52;;;;;;;66.90;41.92;;;0.80;99.90;;;;;;5033603;28;20045;-45
2023/01/25 06:24:20;;;;;;;64.15;40.58;;;0.80;99.90;;;;;;5041287;28;20049;-51
2023/01/25 06:26:47;;;;;;;67.13;42.05;;;0.80;99.90;;;;;;5053263;28;20098;-50
2023/01/25 06:29:14;;;;;;;67.47;42.08;;;0.90;99.90;;;;;;5041673;28;20099;-54
2023/01/25 06:31:41;;;;;;;70.53;43.00;;;0.80;99.90;;;;;;5034264;28;20480;-52
2023/01/25 06:34:08;;;;;;;70.15;42.92;;;0.80;99.90;;;;;;5032616;28;20089;-52
2023/01/25 06:36:35;;;;;;;66.82;41.83;;;0.70;99.90;;;;;;5032806;28;20371;-50
2023/01/25 06:39:02;;;;;;;69.95;43.95;;;0.70;99.90;;;;;;5033613;28;20132;-46
2023/01/25 06:41:30;;;;;;;65.13;40.78;;;0.80;99.90;;;;;;5033354;28;20448;-50
2023/01/25 06:43:56;;;;;;;72.10;41.42;;;0.80;99.90;;;;;;5032658;28;20130;-54
2023/01/25 06:46:23;;;;;;;70.53;43.00;;;0.80;99.90;;;;;;5033746;28;20099;-48
2023/01/25 06:48:50;;;;;;;67.88;42.38;;;0.80;99.90;;;;;;5034252;28;20093;-50
2023/01/25 06:51:17;;;;;;;66.45;43.78;;;0.80;99.90;;;;;;5033015;28;20111;-54
2023/01/25 06:53:44;;;;;;;66.80;42.88;;;0.70;99.90;;;;;;5032135;28;20088;-55
2023/01/25 06:56:12;;;;;;;70.93;42.83;;;0.70;99.90;;;;;;5033985;28;20127;-42
2023/01/25 06:58:40;;;;;;;67.05;42.05;;;0.70;99.90;;;;;;5032912;28;20461;-53
2023/01/25 07:01:09;;;;;;;66.97;41.78;;;0.70;99.90;;;;;;5033675;28;20104;-52
2023/01/25 07:03:35;;;;;;;70.07;43.03;;;0.70;99.90;;;;;;5032603;28;20100;-51
2023/01/25 07:06:03;;;;;;;72.78;44.05;;;0.70;99.90;;;;;;5033828;28;20045;-50
2023/01/25 07:08:30;;;;;;;71.75;44.47;;;0.70;99.90;;;;;;5032449;28;20535;-52
2023/01/25 07:10:58;;;;;;;70.78;42.42;;;0.70;99.90;;;;;;5033539;28;20053;-51
2023/01/25 07:13:25;;;;;;;66.95;41.83;;;0.70;99.90;;;;;;5033013;28;20088;-51
2023/01/25 07:15:57;;;;;;;62.92;38.50;;;0.70;99.90;;;;;;5032724;28;20132;-49
2023/01/25 07:18:24;;;;;;;69.55;43.38;;;0.70;99.90;;;;;;5032766;28;20089;-51
2023/01/25 07:20:51;;;;;;;63.47;39.05;;;0.80;99.90;;;;;;5033487;28;20111;-49
2023/01/25 07:23:17;;;;;;;72.65;43.10;;;0.70;99.90;;;;;;5032069;28;20085;-49
2023/01/25 07:25:45;;;;;;;70.22;44.88;;;0.70;99.90;;;;;;5053175;28;20084;-50
2023/01/25 07:28:12;;;;;;;72.90;43.83;;;0.70;99.90;;;;;;5053381;28;20049;-49
2023/01/25 07:30:39;;;;;;;67.88;42.70;;;0.70;99.90;;;;;;5052852;28;20096;-52
2023/01/25 07:33:07;;;;;;;70.18;42.70;;;0.70;99.90;;;;;;5048109;28;20077;-52
2023/01/25 07:35:34;;;;;;;69.65;42.55;;;0.70;99.90;;;;;;5033374;28;20100;-50
2023/01/25 07:38:01;;;;;;;72.90;44.55;;;0.70;99.90;;;;;;5033029;28;20081;-47
2023/01/25 07:40:28;;;;;;;68.68;41.63;;;0.70;99.90;;;;;;5033059;28;20469;-51
2023/01/25 07:42:55;;;;;;;69.85;43.70;;;0.70;99.90;;;;;;5031078;28;20092;-49
2023/01/25 07:45:27;;;;;;;65.82;40.20;;;0.70;99.90;;;;;;5031968;28;20089;-49
2023/01/25 07:47:54;;;;;;;71.72;40.67;;;0.70;99.90;;;;;;5032311;28;20057;-52
2023/01/25 07:50:22;;;;;;;63.78;39.95;;;0.70;99.90;;;;;;5033150;28;20409;-52
2023/01/25 07:52:49;;;;;;;61.95;39.08;;;0.70;99.90;;;;;;5032245;28;20081;-48
2023/01/25 07:55:16;;;;;;;70.75;42.17;;;0.70;99.90;;;;;;5032797;28;20515;-50
2023/01/25 07:57:43;;;;;;;67.30;41.75;;;0.70;99.90;;;;;;5031770;28;20417;-53
2023/01/25 08:00:11;;;;;;;67.22;41.78;;;0.70;99.90;;;;;;5031967;28;20080;-53
2023/01/25 08:02:38;;;;;;;69.75;42.10;;;0.70;99.90;;;;;;5031715;28;20099;-48
2023/01/25 08:05:05;;;;;;;64.93;39.72;;;0.70;99.90;;;;;;5030083;28;20057;-50
2023/01/25 08:07:34;;;;;;;67.00;40.72;;;0.70;99.90;;;;;;5032713;28;20409;-51
2023/01/25 08:10:00;;;;;;;63.70;39.97;;;0.70;99.90;;;;;;5031366;28;20083;-49
2023/01/25 08:12:27;;;;;;;67.43;42.05;;;0.70;99.90;;;;;;5032489;28;20382;-53
2023/01/25 08:14:54;;;;;;;75.97;44.47;;;0.70;99.90;;;;;;5032292;28;20140;-51
2023/01/25 08:17:21;;;;;;;70.65;42.35;;;0.70;99.90;;;;;;5032694;28;20088;-52
2023/01/25 08:19:48;;;;;;;73.25;43.70;;;0.60;99.90;;;;;;5030497;28;20049;-52
2023/01/25 08:22:15;;;;;;;68.65;41.42;;;0.60;99.90;;;;;;5032263;28;20605;-48
2023/01/25 08:24:43;;;;;;;69.80;42.47;;;0.60;99.90;;;;;;5044626;28;20049;-49
2023/01/25 08:27:10;;;;;;;70.32;43.47;;;0.60;99.90;;;;;;5052761;28;20053;-49
2023/01/25 08:29:37;;;;;;;66.97;41.55;;;0.60;99.90;;;;;;5036820;28;20137;-50
2023/01/25 08:32:05;;;;;;;68.00;41.28;;;0.60;99.90;;;;;;5032547;28;20049;-51
2023/01/25 08:34:31;;;;;;;68.95;42.00;;;0.60;99.90;;;;;;5032309;28;20386;-52
2023/01/25 08:36:58;;;;;;;71.70;42.97;;;0.60;99.90;;;;;;5031057;28;20049;-53
2023/01/25 08:39:25;;;;;;;73.30;42.28;;;0.60;99.90;;;;;;5030448;28;20119;-50
2023/01/25 08:41:53;;;;;;;68.13;41.53;;;0.70;99.90;;;;;;5030649;28;20456;-54
2023/01/25 08:44:22;;;;;;;67.25;41.75;;;0.60;99.90;;;;;;5032460;28;20049;-53
2023/01/25 08:46:49;;;;;;;66.22;39.85;;;0.70;99.90;;;;;;5032143;28;20485;-51
2023/01/25 08:49:16;;;;;;;73.95;44.28;;;0.70;99.90;;;;;;5031565;28;20046;-51
2023/01/25 08:51:43;;;;;;;75.30;43.22;;;0.70;99.90;;;;;;5031464;28;20053;-47
2023/01/25 08:54:11;;;;;;;70.28;45.95;;;0.70;99.90;;;;;;5032078;28;20382;-52
2023/01/25 08:56:38;;;;;;;68.32;41.88;;;0.70;99.90;;;;;;5031970;28;20099;-49
2023/01/25 08:59:06;;;;;;;65.75;38.92;;;0.70;99.90;;;;;;5030955;28;20081;-52
2023/01/25 09:01:33;;;;;;;72.15;42.70;;;0.60;99.90;;;;;;5032420;28;20046;-54
2023/01/25 09:03:59;;;;;;;68.88;40.90;;;0.50;99.90;;;;;;5031067;28;20119;-49
2023/01/25 09:06:26;;;;;;;68.30;42.20;;;0.50;99.90;;;;;;5035295;28;20547;-51
2023/01/25 09:08:53;;;;;;;66.03;39.13;;;0.60;99.90;;;;;;5034274;28;20080;-49
2023/01/25 09:11:20;;;;;;;73.95;44.67;;;0.50;99.90;;;;;;5035889;28;20045;-51
2023/01/25 09:13:47;;;;;;;92.10;55.83;;;0.60;99.90;;;;;;5034678;28;20516;-53
2023/01/25 09:16:16;;;;;;;69.53;41.38;;;0.50;99.90;;;;;;5034922;28;20084;-53
2023/01/25 09:18:44;;;;;;;68.80;40.95;;;0.50;99.90;;;;;;5034593;28;20095;-53
2023/01/25 09:21:11;;;;;;;64.13;38.75;;;0.50;99.90;;;;;;5034809;28;20099;-49
2023/01/25 09:23:38;;;;;;;80.10;48.15;;;0.50;99.90;;;;;;5035734;28;20089;-49
2023/01/25 09:26:05;;;;;;;74.78;42.95;;;0.50;99.90;;;;;;5035438;28;20097;-49
2023/01/25 09:28:32;;;;;;;64.70;40.13;;;0.50;99.90;;;;;;5034064;28;20084;-51
2023/01/25 09:31:00;;;;;;;63.72;39.00;;;0.60;99.90;;;;;;5035682;28;20107;-46
2023/01/25 09:33:29;;;;;;;64.22;39.47;;;0.60;99.90;;;;;;5035102;28;20107;-53
2023/01/25 09:35:56;;;;;;;65.90;40.33;;;0.60;99.90;;;;;;5035386;28;20104;-49
2023/01/25 09:38:23;;;;;;;68.20;39.75;;;0.70;99.90;;;;;;5034792;28;20088;-52
2023/01/25 09:40:57;;;;;;;65.97;39.55;;;0.70;99.90;;;;;;5035385;28;20405;-52
2023/01/25 09:43:30;;;;;;;65.65;40.78;;;0.70;99.90;;;;;;5034553;28;20060;-51
2023/01/25 09:45:56;;;;;;;64.07;38.78;;;0.70;99.90;;;;;;5034307;28;20089;-52
2023/01/25 09:48:28;;;;;;;66.07;39.78;;;0.70;99.90;;;;;;5034373;28;20493;-50
2023/01/25 09:51:07;;;;;;;;;;;0.70;99.90;;;;;;5035491;28;20509;-52
2023/01/25 09:53:35;;;;;;;62.50;37.72;;;0.80;99.90;;;;;;5035477;28;20016;-53
2023/01/25 09:56:04;;;;;;;65.50;39.08;;;0.70;99.90;;;;;;5034106;28;20100;-51
2023/01/25 09:58:33;;;;;;;67.45;40.40;;;0.70;99.90;;;;;;5034502;28;20045;-53
2023/01/25 10:01:16;;;;;;;65.25;38.55;;;0.70;99.90;;;;;;5034405;28;20053;-52
2023/01/25 10:03:48;;;;;;;63.67;36.55;;;0.70;99.90;;;;;;5034768;28;20565;-54
2023/01/25 10:06:15;;;;;;;62.08;35.85;;;0.70;99.90;;;;;;5035041;28;20103;-54
2023/01/25 10:08:44;;;;;;;63.05;36.38;;;0.60;99.90;;;;;;5034027;28;20053;-52
2023/01/25 10:11:14;;;;;;;60.83;35.83;;;0.60;99.90;;;;;;5034943;28;20057;-54
2023/01/25 10:13:41;;;;;;;65.82;37.97;;;0.60;99.90;;;;;;5034162;28;20472;-43
2023/01/25 10:16:12;;;;;;;64.47;38.30;;;0.60;99.90;;;;;;5032584;28;20041;-53
2023/01/25 10:18:40;;;;;;;61.75;35.70;;;0.60;99.90;;;;;;5033963;28;20084;-55
2023/01/25 10:21:12;;;;;;;65.43;37.53;;;0.60;99.90;;;;;;5035005;28;20096;-51
2023/01/25 10:23:58;;;;;;;64.40;36.95;;;0.60;99.90;;;;;;5033649;28;20084;-55
2023/01/25 10:26:26;;;;;;;61.17;36.50;;;0.60;99.90;;;;;;5033982;28;20042;-54
2023/01/25 10:28:56;;;;;;;63.53;38.03;;;0.50;99.90;;;;;;5034380;28;20532;-52
2023/01/25 10:31:26;;;;;;;66.03;37.92;;;0.50;99.90;;;;;;5034293;28;20084;-51
2023/01/25 10:33:52;;;;;;;69.82;38.83;;;0.60;99.90;;;;;;5033408;28;20046;-52
2023/01/25 10:36:23;;;;;;;67.03;37.80;;;0.60;99.90;;;;;;5032864;28;20449;-52
2023/01/25 10:38:56;;;;;;;69.10;39.08;;;0.60;99.90;;;;;;5033890;28;20464;-50
2023/01/25 10:41:27;;;;;;;67.22;39.03;;;0.70;99.90;;;;;;5033194;28;20053;-51
2023/01/25 10:44:20;;;;;;;66.45;38.42;;;0.60;99.90;;;;;;5034657;28;20049;-53
2023/01/25 10:46:49;;;;;;;64.38;37.38;;;0.60;99.90;;;;;;5033017;28;20052;-52
2023/01/25 10:49:21;;;;;;;66.70;38.33;;;0.70;99.90;;;;;;5033050;28;20045;-53
2023/01/25 10:51:49;;;;;;;62.28;36.22;;;0.60;99.90;;;;;;5033935;28;20091;-53
2023/01/25 10:54:16;;;;;;;66.72;36.95;;;0.70;99.90;;;;;;5033127;28;20114;-51
2023/01/25 10:56:43;;;;;;;67.07;37.60;;;0.60;99.90;;;;;;5047192;28;20085;-49
2023/01/25 10:59:18;;;;;;;70.85;38.58;;;0.60;99.90;;;;;;5014040;28;20105;-52
2023/01/25 11:01:45;;;;;;;71.53;37.38;;;0.60;99.90;;;;;;5013036;28;20537;-53
2023/01/25 11:04:29;;;;;;;68.88;36.38;;;0.60;99.90;;;;;;5014077;28;20085;-54
2023/01/25 11:06:57;;;;;;;72.00;37.42;;;0.50;99.90;;;;;;5013695;28;20147;-51
2023/01/25 11:09:39;;;;;;;69.45;37.40;;;0.50;99.90;;;;;;5032769;28;20387;-52
2023/01/25 11:12:17;;;;;;;66.38;36.03;;;0.50;99.90;;;;;;5033332;28;20085;-52
2023/01/25 11:14:44;;;;;;;74.80;37.08;;;0.50;99.90;;;;;;5032280;28;20053;-50
2023/01/25 11:17:22;;;;;;;76.60;37.65;;;0.50;99.90;;;;;;5031954;28;20111;-52
2023/01/25 11:19:49;;;;;;;69.18;37.38;;;0.50;99.90;;;;;;5032468;28;20053;-55
2023/01/25 11:22:23;;;;;;;78.53;38.47;;;0.50;99.90;;;;;;5032415;28;20104;-47
2023/01/25 11:24:50;;;;;;;74.43;37.13;;;0.50;99.90;;;;;;5033500;28;20055;-56
2023/01/25 11:27:19;;;;;;;72.38;35.35;;;0.60;99.90;;;;;;5030753;28;20076;-52
2023/01/25 11:29:46;;;;;;;70.13;35.85;;;0.60;99.90;;;;;;5031854;28;20060;-52
2023/01/25 11:32:21;;;;;;;69.63;38.10;;;0.60;99.90;;;;;;5033553;28;20397;-55
2023/01/25 11:34:48;;;;;;;78.63;40.78;;;0.60;99.90;;;;;;5031987;28;20060;-51
2023/01/25 11:37:26;;;;;;;70.97;36.50;;;0.60;99.90;;;;;;5031557;28;20387;-55
2023/01/25 11:39:57;;;;;;;66.93;34.03;;;0.60;99.90;;;;;;5032182;28;20085;-55
2023/01/25 11:42:28;;;;;;;73.35;36.75;;;0.60;99.90;;;;;;5032963;28;20080;-54
2023/01/25 11:45:44;;;;;;;71.05;37.10;;;0.70;99.90;;;;;;5033017;28;20444;-48
2023/01/25 11:48:28;;;;;;;70.82;36.53;;;0.60;99.90;;;;;;5013361;28;20054;-54
2023/01/25 11:50:58;;;;;;;69.40;36.47;;;0.60;99.90;;;;;;5012111;28;20139;-56
2023/01/25 11:53:35;;;;;;;72.80;37.53;;;0.60;99.90;;;;;;5024410;28;20088;-54
2023/01/25 11:56:06;;;;;;;71.28;37.92;;;0.60;99.90;;;;;;5044211;28;20098;-54
2023/01/25 11:58:40;;;;;;;71.60;36.92;;;0.70;99.90;;;;;;5028292;28;20132;-53
2023/01/25 12:01:11;;;;;;;68.30;35.78;;;0.70;99.90;;;;;;5030963;28;20085;-48
2023/01/25 12:04:28;;;;;;;67.47;35.72;;;0.70;99.90;;;;;;5031762;28;20079;-49
2023/01/25 12:06:58;;;;;;;70.45;36.55;;;0.70;99.90;;;;;;5029715;28;20493;-50
2023/01/25 12:09:46;;;;;;;66.95;34.65;;;0.70;99.90;;;;;;5029465;28;20062;-53
2023/01/25 12:12:22;;;;;;;69.00;35.05;;;0.70;99.90;;;;;;5031537;28;20092;-53
2023/01/25 12:15:16;;;;;;;71.88;37.15;;;0.70;99.90;;;;;;5031792;28;20092;-47
2023/01/25 12:17:52;;;;;;;74.78;37.85;;;0.90;99.90;;;;;;5028448;28;20128;-54
2023/01/25 12:20:30;;;;;;;75.55;37.30;;;0.80;99.90;;;;;;5031573;28;20084;-55
2023/01/25 12:23:12;;;;;;;72.78;37.67;;;0.70;99.90;;;;;;5032465;28;20148;-55
2023/01/25 12:25:47;;;;;;;68.72;35.83;;;0.80;99.90;;;;;;5032667;28;20387;-54
2023/01/25 12:28:17;;;;;;;70.68;35.80;;;0.80;99.90;;;;;;5030360;28;20077;-56
2023/01/25 12:30:48;;;;;;;70.32;34.40;;;0.80;99.90;;;;;;5032342;28;20484;-53
2023/01/25 12:33:16;;;;;;;73.18;36.03;;;0.80;99.90;;;;;;5032440;28;20567;-54
2023/01/25 12:35:44;;;;;;;70.65;35.33;;;0.80;99.90;;;;;;5031703;28;20466;-53
2023/01/25 12:38:13;;;;;;;72.68;36.13;;;0.80;99.90;;;;;;5031768;28;20042;-56
2023/01/25 12:40:45;;;;;;;72.25;36.90;;;0.80;99.90;;;;;;5040732;28;20088;-55
2023/01/25 12:43:14;;;;;;;;;;;0.80;99.90;;;;;;5056945;28;20392;-55
2023/01/25 12:45:44;;;;;;;74.07;37.45;;;0.80;99.90;;;;;;5056055;28;20425;-52